sensor_id;sensor_type;location;lat;lon;timestamp;pressure;altitude;pressure_sealevel;temperature;humidity
78223;BME280;67497;53.058;21.618;2023-12-20T00:00:38;99409.97;;;4.56;90.10
78223;BME280;67497;53.058;21.618;2023-12-20T00:02:38;99420.56;;;4.69;89.18
78223;BME280;67497;53.058;21.618;2023-12-20T00:04:38;99411.00;;;4.65;89.45
78223;BME280;67497;53.058;21.618;2023-12-20T00:06:39;99415.13;;;4.59;89.72
78223;BME280;67497;53.058;21.618;2023-12-20T00:08:39;99409.13;;;4.56;90.22
78223;BME280;67497;53.058;21.618;2023-12-20T00:10:39;99416.81;;;4.60;89.79
78223;BME280;67497;53.058;21.618;2023-12-20T00:12:40;99430.00;;;4.65;89.96
78223;BME280;67497;53.058;21.618;2023-12-20T00:14:41;99377.31;;;4.28;90.24
78223;BME280;67497;53.058;21.618;2023-12-20T00:16:41;99413.06;;;4.52;90.48
78223;BME280;67497;53.058;21.618;2023-12-20T00:18:41;99422.78;;;4.54;90.17
78223;BME280;67497;53.058;21.618;2023-12-20T00:20:42;99393.75;;;4.36;90.83
78223;BME280;67497;53.058;21.618;2023-12-20T00:22:42;99416.81;;;4.51;90.39
78223;BME280;67497;53.058;21.618;2023-12-20T00:24:42;99381.59;;;4.30;90.49
78223;BME280;67497;53.058;21.618;2023-12-20T00:27:00;99437.09;;;4.56;90.74
78223;BME280;67497;53.058;21.618;2023-12-20T00:29:27;99378.44;;;4.25;90.58
78223;BME280;67497;53.058;21.618;2023-12-20T00:31:28;99358.59;;;4.15;90.68
78223;BME280;67497;53.058;21.618;2023-12-20T00:33:28;99365.03;;;4.23;90.74
78223;BME280;67497;53.058;21.618;2023-12-20T00:35:29;99343.91;;;4.17;90.81
78223;BME280;67497;53.058;21.618;2023-12-20T00:38:17;99416.25;;;4.57;90.55
78223;BME280;67497;53.058;21.618;2023-12-20T00:40:17;99412.53;;;4.58;90.68
78223;BME280;67497;53.058;21.618;2023-12-20T00:42:17;99353.19;;;4.24;91.10
78223;BME280;67497;53.058;21.618;2023-12-20T00:44:18;99387.53;;;4.45;90.90
78223;BME280;67497;53.058;21.618;2023-12-20T00:46:18;99392.25;;;4.52;90.11
78223;BME280;67497;53.058;21.618;2023-12-20T00:48:19;99394.66;;;4.46;90.16
78223;BME280;67497;53.058;21.618;2023-12-20T00:50:20;99372.81;;;4.38;90.16
78223;BME280;67497;53.058;21.618;2023-12-20T00:52:21;99376.09;;;4.41;90.69
78223;BME280;67497;53.058;21.618;2023-12-20T00:54:22;99406.41;;;4.65;90.47
78223;BME280;67497;53.058;21.618;2023-12-20T00:56:23;99385.13;;;4.51;90.44
78223;BME280;67497;53.058;21.618;2023-12-20T00:58:24;99343.22;;;4.25;90.46
78223;BME280;67497;53.058;21.618;2023-12-20T01:00:24;99361.31;;;4.24;90.62
78223;BME280;67497;53.058;21.618;2023-12-20T01:02:24;99384.81;;;4.45;90.62
78223;BME280;67497;53.058;21.618;2023-12-20T01:04:25;99343.63;;;4.20;90.53
78223;BME280;67497;53.058;21.618;2023-12-20T01:06:25;99352.19;;;4.26;91.07
78223;BME280;67497;53.058;21.618;2023-12-20T01:08:25;99339.63;;;4.24;90.79
78223;BME280;67497;53.058;21.618;2023-12-20T01:10:26;99395.44;;;4.67;90.25
78223;BME280;67497;53.058;21.618;2023-12-20T01:12:28;99345.13;;;4.44;90.31
78223;BME280;67497;53.058;21.618;2023-12-20T01:14:29;99349.41;;;4.37;90.90
78223;BME280;67497;53.058;21.618;2023-12-20T01:16:29;99386.00;;;4.61;90.56
78223;BME280;67497;53.058;21.618;2023-12-20T01:18:30;99352.81;;;4.39;90.62
78223;BME280;67497;53.058;21.618;2023-12-20T01:20:30;99323.38;;;4.24;90.84
78223;BME280;67497;53.058;21.618;2023-12-20T01:22:30;99342.50;;;4.33;90.67
78223;BME280;67497;53.058;21.618;2023-12-20T01:24:31;99408.28;;;4.65;90.39
78223;BME280;67497;53.058;21.618;2023-12-20T01:26:31;99390.84;;;4.58;91.04
78223;BME280;67497;53.058;21.618;2023-12-20T01:28:32;99367.81;;;4.43;91.14
78223;BME280;67497;53.058;21.618;2023-12-20T01:30:32;99393.69;;;4.56;91.42
78223;BME280;67497;53.058;21.618;2023-12-20T01:32:32;99379.28;;;4.56;91.29
78223;BME280;67497;53.058;21.618;2023-12-20T01:34:33;99331.97;;;4.30;90.99
78223;BME280;67497;53.058;21.618;2023-12-20T01:36:34;99357.97;;;4.42;90.79
78223;BME280;67497;53.058;21.618;2023-12-20T01:38:34;99388.56;;;4.63;90.62
78223;BME280;67497;53.058;21.618;2023-12-20T01:40:34;99371.41;;;4.53;90.88
78223;BME280;67497;53.058;21.618;2023-12-20T01:42:35;99354.28;;;4.52;90.46
78223;BME280;67497;53.058;21.618;2023-12-20T01:44:35;99377.31;;;4.67;90.45
78223;BME280;67497;53.058;21.618;2023-12-20T01:46:35;99311.44;;;4.27;90.74
78223;BME280;67497;53.058;21.618;2023-12-20T01:48:36;99375.00;;;4.63;90.81
78223;BME280;67497;53.058;21.618;2023-12-20T01:50:37;99375.31;;;4.69;90.94
78223;BME280;67497;53.058;21.618;2023-12-20T01:52:38;99297.88;;;4.37;90.36
78223;BME280;67497;53.058;21.618;2023-12-20T01:54:38;99306.88;;;4.47;90.46
78223;BME280;67497;53.058;21.618;2023-12-20T01:56:40;99287.03;;;4.37;90.13
78223;BME280;67497;53.058;21.618;2023-12-20T01:58:44;99302.00;;;4.41;90.55
78223;BME280;67497;53.058;21.618;2023-12-20T02:00:46;99290.19;;;4.42;90.25
78223;BME280;67497;53.058;21.618;2023-12-20T02:02:46;99288.03;;;4.36;90.36
78223;BME280;67497;53.058;21.618;2023-12-20T02:04:47;99288.44;;;4.41;90.44
78223;BME280;67497;53.058;21.618;2023-12-20T02:06:52;99343.03;;;4.76;90.63
78223;BME280;67497;53.058;21.618;2023-12-20T02:08:52;99301.50;;;4.66;89.89
78223;BME280;67497;53.058;21.618;2023-12-20T02:10:54;99296.06;;;4.66;89.58
78223;BME280;67497;53.058;21.618;2023-12-20T02:12:54;99333.22;;;4.84;89.98
78223;BME280;67497;53.058;21.618;2023-12-20T02:14:55;99268.53;;;4.51;89.84
78223;BME280;67497;53.058;21.618;2023-12-20T02:16:55;99298.78;;;4.66;89.47
78223;BME280;67497;53.058;21.618;2023-12-20T02:18:56;99310.66;;;4.65;90.37
78223;BME280;67497;53.058;21.618;2023-12-20T02:20:57;99330.22;;;4.78;89.82
78223;BME280;67497;53.058;21.618;2023-12-20T02:22:57;99264.38;;;4.38;90.20
78223;BME280;67497;53.058;21.618;2023-12-20T02:24:58;99295.47;;;4.62;90.11
78223;BME280;67497;53.058;21.618;2023-12-20T02:26:58;99283.66;;;4.54;90.08
78223;BME280;67497;53.058;21.618;2023-12-20T02:28:59;99326.66;;;4.77;90.67
78223;BME280;67497;53.058;21.618;2023-12-20T02:30:59;99324.78;;;4.78;89.90
78223;BME280;67497;53.058;21.618;2023-12-20T02:33:00;99291.63;;;4.55;89.97
78223;BME280;67497;53.058;21.618;2023-12-20T02:35:01;99306.91;;;4.66;90.19
78223;BME280;67497;53.058;21.618;2023-12-20T02:37:01;99287.78;;;4.58;90.08
78223;BME280;67497;53.058;21.618;2023-12-20T02:39:02;99299.66;;;4.66;89.66
78223;BME280;67497;53.058;21.618;2023-12-20T02:41:02;99297.09;;;4.65;90.27
78223;BME280;67497;53.058;21.618;2023-12-20T02:43:03;99288.63;;;4.68;89.48
78223;BME280;67497;53.058;21.618;2023-12-20T02:45:04;99290.66;;;4.66;89.85
78223;BME280;67497;53.058;21.618;2023-12-20T02:47:04;99312.94;;;4.79;90.09
78223;BME280;67497;53.058;21.618;2023-12-20T02:49:06;99250.06;;;4.36;90.43
78223;BME280;67497;53.058;21.618;2023-12-20T02:51:06;99301.22;;;4.69;90.62
78223;BME280;67497;53.058;21.618;2023-12-20T02:53:06;99309.78;;;4.74;90.65
78223;BME280;67497;53.058;21.618;2023-12-20T02:55:07;99269.50;;;4.50;90.88
78223;BME280;67497;53.058;21.618;2023-12-20T02:57:07;99315.50;;;4.71;90.83
78223;BME280;67497;53.058;21.618;2023-12-20T02:59:08;99262.09;;;4.43;91.34
78223;BME280;67497;53.058;21.618;2023-12-20T03:01:11;99242.25;;;4.42;90.76
78223;BME280;67497;53.058;21.618;2023-12-20T03:03:11;99305.53;;;4.81;90.65
78223;BME280;67497;53.058;21.618;2023-12-20T03:05:11;99241.09;;;4.45;90.30
78223;BME280;67497;53.058;21.618;2023-12-20T03:07:12;99261.69;;;4.57;90.73
78223;BME280;67497;53.058;21.618;2023-12-20T03:09:12;99255.50;;;4.55;90.47
78223;BME280;67497;53.058;21.618;2023-12-20T03:11:13;99265.53;;;4.64;90.37
78223;BME280;67497;53.058;21.618;2023-12-20T03:13:14;99296.66;;;4.79;90.54
78223;BME280;67497;53.058;21.618;2023-12-20T03:15:14;99267.97;;;4.67;90.44
78223;BME280;67497;53.058;21.618;2023-12-20T03:17:15;99237.09;;;4.49;90.66
78223;BME280;67497;53.058;21.618;2023-12-20T03:19:16;99231.38;;;4.52;90.49
78223;BME280;67497;53.058;21.618;2023-12-20T03:21:17;99290.50;;;4.77;90.23
78223;BME280;67497;53.058;21.618;2023-12-20T03:23:17;99296.94;;;4.76;90.71
78223;BME280;67497;53.058;21.618;2023-12-20T03:25:17;99274.09;;;4.69;90.83
78223;BME280;67497;53.058;21.618;2023-12-20T03:27:18;99258.09;;;4.56;90.79
78223;BME280;67497;53.058;21.618;2023-12-20T03:29:18;99264.06;;;4.60;90.54
78223;BME280;67497;53.058;21.618;2023-12-20T03:31:18;99267.53;;;4.62;91.29
78223;BME280;67497;53.058;21.618;2023-12-20T03:33:19;99246.38;;;4.46;90.79
78223;BME280;67497;53.058;21.618;2023-12-20T03:35:20;99234.97;;;4.43;91.09
78223;BME280;67497;53.058;21.618;2023-12-20T03:37:21;99219.25;;;4.37;91.04
78223;BME280;67497;53.058;21.618;2023-12-20T03:39:22;99287.81;;;4.77;90.86
78223;BME280;67497;53.058;21.618;2023-12-20T03:41:22;99291.50;;;4.76;90.99
78223;BME280;67497;53.058;21.618;2023-12-20T03:43:23;99232.97;;;4.45;90.73
78223;BME280;67497;53.058;21.618;2023-12-20T03:45:23;99272.53;;;4.66;90.55
78223;BME280;67497;53.058;21.618;2023-12-20T03:47:23;99256.97;;;4.59;90.94
78223;BME280;67497;53.058;21.618;2023-12-20T03:49:24;99229.81;;;4.40;91.28
78223;BME280;67497;53.058;21.618;2023-12-20T03:51:24;99294.09;;;4.77;90.66
78223;BME280;67497;53.058;21.618;2023-12-20T03:53:24;99309.22;;;4.80;91.23
78223;BME280;67497;53.058;21.618;2023-12-20T03:55:25;99258.97;;;4.57;90.98
78223;BME280;67497;53.058;21.618;2023-12-20T03:57:25;99290.66;;;4.85;90.76
78223;BME280;67497;53.058;21.618;2023-12-20T03:59:26;99225.69;;;4.45;90.67
78223;BME280;67497;53.058;21.618;2023-12-20T04:01:26;99272.38;;;4.68;90.80
78223;BME280;67497;53.058;21.618;2023-12-20T04:03:26;99235.41;;;4.48;90.63
78223;BME280;67497;53.058;21.618;2023-12-20T04:05:27;99232.25;;;4.43;91.18
78223;BME280;67497;53.058;21.618;2023-12-20T04:07:28;99280.50;;;4.68;90.87
78223;BME280;67497;53.058;21.618;2023-12-20T04:09:28;99258.97;;;4.57;90.99
78223;BME280;67497;53.058;21.618;2023-12-20T04:11:29;99265.81;;;4.61;90.97
78223;BME280;67497;53.058;21.618;2023-12-20T04:13:29;99290.94;;;4.82;91.33
78223;BME280;67497;53.058;21.618;2023-12-20T04:15:29;99290.94;;;4.82;91.18
78223;BME280;67497;53.058;21.618;2023-12-20T04:17:30;99242.69;;;4.57;90.70
78223;BME280;67497;53.058;21.618;2023-12-20T04:19:30;99268.38;;;4.72;91.22
78223;BME280;67497;53.058;21.618;2023-12-20T04:21:30;99261.50;;;4.68;91.41
78223;BME280;67497;53.058;21.618;2023-12-20T04:23:31;99296.94;;;4.86;90.87
78223;BME280;67497;53.058;21.618;2023-12-20T04:25:31;99258.38;;;4.63;91.48
78223;BME280;67497;53.058;21.618;2023-12-20T04:27:32;99240.97;;;4.56;91.34
78223;BME280;67497;53.058;21.618;2023-12-20T04:29:32;99245.56;;;4.65;91.20
78223;BME280;67497;53.058;21.618;2023-12-20T04:31:33;99260.94;;;4.74;91.21
78223;BME280;67497;53.058;21.618;2023-12-20T04:33:33;99224.13;;;4.52;91.17
78223;BME280;67497;53.058;21.618;2023-12-20T04:35:34;99243.81;;;4.64;91.20
78223;BME280;67497;53.058;21.618;2023-12-20T04:37:34;99217.97;;;4.50;91.15
78223;BME280;67497;53.058;21.618;2023-12-20T04:39:35;99249.84;;;4.67;91.12
78223;BME280;67497;53.058;21.618;2023-12-20T04:41:35;99228.41;;;4.55;91.39
78223;BME280;67497;53.058;21.618;2023-12-20T04:43:36;99230.53;;;4.61;91.26
78223;BME280;67497;53.058;21.618;2023-12-20T04:45:36;99246.25;;;4.67;91.15
78223;BME280;67497;53.058;21.618;2023-12-20T04:47:37;99271.94;;;4.82;91.14
78223;BME280;67497;53.058;21.618;2023-12-20T04:49:37;99227.84;;;4.61;91.34
78223;BME280;67497;53.058;21.618;2023-12-20T04:51:37;99256.69;;;4.81;91.08
78223;BME280;67497;53.058;21.618;2023-12-20T04:53:38;99259.81;;;4.76;90.51
78223;BME280;67497;53.058;21.618;2023-12-20T04:55:38;99260.09;;;4.73;91.05
78223;BME280;67497;53.058;21.618;2023-12-20T04:57:39;99234.09;;;4.52;91.27
78223;BME280;67497;53.058;21.618;2023-12-20T04:59:39;99260.09;;;4.64;91.65
78223;BME280;67497;53.058;21.618;2023-12-20T05:01:41;99258.81;;;4.58;91.27
78223;BME280;67497;53.058;21.618;2023-12-20T05:03:41;99252.97;;;4.53;92.11
78223;BME280;67497;53.058;21.618;2023-12-20T05:05:41;99241.69;;;4.48;91.77
78223;BME280;67497;53.058;21.618;2023-12-20T05:07:42;99260.09;;;4.64;92.03
78223;BME280;67497;53.058;21.618;2023-12-20T05:09:42;99249.25;;;4.64;91.39
78223;BME280;67497;53.058;21.618;2023-12-20T05:11:43;99254.69;;;4.64;91.60
78223;BME280;67497;53.058;21.618;2023-12-20T05:13:43;99207.00;;;4.42;91.50
78223;BME280;67497;53.058;21.618;2023-12-20T05:15:43;99249.53;;;4.61;91.79
78223;BME280;67497;53.058;21.618;2023-12-20T05:17:44;99251.53;;;4.68;91.69
78223;BME280;67497;53.058;21.618;2023-12-20T05:19:44;99279.53;;;4.88;91.85
78223;BME280;67497;53.058;21.618;2023-12-20T05:21:44;99250.69;;;4.77;91.11
78223;BME280;67497;53.058;21.618;2023-12-20T05:23:45;99236.81;;;4.71;90.95
78223;BME280;67497;53.058;21.618;2023-12-20T05:25:46;99218.84;;;4.60;91.14
78223;BME280;67497;53.058;21.618;2023-12-20T05:27:46;99216.56;;;4.56;90.89
78223;BME280;67497;53.058;21.618;2023-12-20T05:29:46;99238.13;;;4.67;91.33
78223;BME280;67497;53.058;21.618;2023-12-20T05:31:47;99206.28;;;4.50;91.52
78223;BME280;67497;53.058;21.618;2023-12-20T05:33:47;99253.25;;;4.79;91.68
78223;BME280;67497;53.058;21.618;2023-12-20T05:35:47;99274.25;;;4.96;91.34
78223;BME280;67497;53.058;21.618;2023-12-20T05:37:48;99272.22;;;4.98;91.17
78223;BME280;67497;53.058;21.618;2023-12-20T05:39:48;99261.94;;;4.92;91.04
78223;BME280;67497;53.058;21.618;2023-12-20T05:41:49;99228.28;;;4.75;91.50
78223;BME280;67497;53.058;21.618;2023-12-20T05:43:49;99266.81;;;4.98;90.98
78223;BME280;67497;53.058;21.618;2023-12-20T05:45:49;99237.25;;;4.86;91.00
78223;BME280;67497;53.058;21.618;2023-12-20T05:47:50;99266.38;;;5.03;90.45
78223;BME280;67497;53.058;21.618;2023-12-20T05:49:50;99240.69;;;4.88;90.75
78223;BME280;67497;53.058;21.618;2023-12-20T05:51:50;99201.13;;;4.66;91.18
78223;BME280;67497;53.058;21.618;2023-12-20T05:53:51;99207.00;;;4.80;90.93
78223;BME280;67497;53.058;21.618;2023-12-20T05:55:51;99217.97;;;4.89;90.31
78223;BME280;67497;53.058;21.618;2023-12-20T05:57:52;99272.38;;;5.16;90.40
78223;BME280;67497;53.058;21.618;2023-12-20T05:59:52;99259.94;;;5.13;90.52
78223;BME280;67497;53.058;21.618;2023-12-20T06:01:53;99258.94;;;5.14;90.20
78223;BME280;67497;53.058;21.618;2023-12-20T06:03:53;99265.22;;;5.15;90.50
78223;BME280;67497;53.058;21.618;2023-12-20T06:05:54;99232.09;;;5.02;90.21
78223;BME280;67497;53.058;21.618;2023-12-20T06:07:54;99245.66;;;4.92;90.78
78223;BME280;67497;53.058;21.618;2023-12-20T06:09:56;99258.94;;;5.05;90.60
78223;BME280;67497;53.058;21.618;2023-12-20T06:11:57;99209.13;;;4.77;90.94
78223;BME280;67497;53.058;21.618;2023-12-20T06:13:57;99266.06;;;5.06;90.73
78223;BME280;67497;53.058;21.618;2023-12-20T06:15:57;99231.84;;;4.86;90.73
78223;BME280;67497;53.058;21.618;2023-12-20T06:17:58;99235.81;;;4.81;90.71
78223;BME280;67497;53.058;21.618;2023-12-20T06:19:58;99242.69;;;4.86;91.12
78223;BME280;67497;53.058;21.618;2023-12-20T06:21:59;99210.28;;;4.74;90.83
78223;BME280;67497;53.058;21.618;2023-12-20T06:23:59;99249.38;;;5.01;90.71
78223;BME280;67497;53.058;21.618;2023-12-20T06:26:00;99218.09;;;4.87;90.27
78223;BME280;67497;53.058;21.618;2023-12-20T06:28:00;99239.25;;;4.93;90.64
78223;BME280;67497;53.058;21.618;2023-12-20T06:30:00;99202.69;;;4.68;91.10
78223;BME280;67497;53.058;21.618;2023-12-20T06:32:01;99264.63;;;5.11;91.00
78223;BME280;67497;53.058;21.618;2023-12-20T06:34:01;99206.13;;;4.70;91.35
78223;BME280;67497;53.058;21.618;2023-12-20T06:36:02;99228.81;;;4.79;91.54
78223;BME280;67497;53.058;21.618;2023-12-20T06:38:03;99264.09;;;4.98;91.43
78223;BME280;67497;53.058;21.618;2023-12-20T06:40:04;99245.25;;;4.87;91.20
78223;BME280;67497;53.058;21.618;2023-12-20T06:42:04;99244.81;;;4.82;91.61
78223;BME280;67497;53.058;21.618;2023-12-20T06:44:04;99248.97;;;4.86;91.23
78223;BME280;67497;53.058;21.618;2023-12-20T06:46:05;99276.09;;;5.05;91.26
78223;BME280;67497;53.058;21.618;2023-12-20T06:48:05;99241.69;;;4.77;92.05
78223;BME280;67497;53.058;21.618;2023-12-20T06:50:06;99248.22;;;4.84;91.64
78223;BME280;67497;53.058;21.618;2023-12-20T06:52:08;99264.09;;;4.98;91.63
78223;BME280;67497;53.058;21.618;2023-12-20T06:54:08;99276.94;;;5.06;91.06
78223;BME280;67497;53.058;21.618;2023-12-20T06:56:10;99239.09;;;4.85;91.38
78223;BME280;67497;53.058;21.618;2023-12-20T06:58:11;99286.34;;;5.11;91.25
78223;BME280;67497;53.058;21.618;2023-12-20T07:00:12;99288.94;;;5.13;91.07
78223;BME280;67497;53.058;21.618;2023-12-20T07:02:12;99249.81;;;4.96;90.80
78223;BME280;67497;53.058;21.618;2023-12-20T07:04:13;99208.97;;;4.78;91.38
78223;BME280;67497;53.058;21.618;2023-12-20T07:06:14;99242.38;;;4.98;91.11
78223;BME280;67497;53.058;21.618;2023-12-20T07:08:16;99253.38;;;5.06;90.98
78223;BME280;67497;53.058;21.618;2023-12-20T07:10:16;99207.84;;;4.81;90.70
78223;BME280;67497;53.058;21.618;2023-12-20T07:12:17;99196.69;;;4.84;90.59
78223;BME280;67497;53.058;21.618;2023-12-20T07:14:19;99265.78;;;5.18;91.00
78223;BME280;67497;53.058;21.618;2023-12-20T07:16:19;99270.78;;;5.23;90.87
78223;BME280;67497;53.058;21.618;2023-12-20T07:18:20;99228.09;;;4.96;90.71
78223;BME280;67497;53.058;21.618;2023-12-20T07:20:20;99235.22;;;5.07;90.86
78223;BME280;67497;53.058;21.618;2023-12-20T07:22:20;99260.94;;;5.12;90.88
78223;BME280;67497;53.058;21.618;2023-12-20T07:24:21;99255.06;;;5.17;90.77
78223;BME280;67497;53.058;21.618;2023-12-20T07:26:21;99278.63;;;5.26;90.57
78223;BME280;67497;53.058;21.618;2023-12-20T07:28:21;99222.84;;;4.95;90.95
78223;BME280;67497;53.058;21.618;2023-12-20T07:30:22;99214.81;;;4.93;90.25
78223;BME280;67497;53.058;21.618;2023-12-20T07:32:22;99266.91;;;5.25;90.76
78223;BME280;67497;53.058;21.618;2023-12-20T07:34:22;99232.34;;;5.08;90.60
78223;BME280;67497;53.058;21.618;2023-12-20T07:36:23;99236.09;;;5.07;90.77
78223;BME280;67497;53.058;21.618;2023-12-20T07:38:23;99281.22;;;5.18;91.25
78223;BME280;67497;53.058;21.618;2023-12-20T07:40:24;99287.22;;;5.21;91.46
78223;BME280;67497;53.058;21.618;2023-12-20T07:42:24;99251.97;;;5.02;91.14
78223;BME280;67497;53.058;21.618;2023-12-20T07:44:25;99252.66;;;5.04;91.29
78223;BME280;67497;53.058;21.618;2023-12-20T07:46:25;99241.38;;;4.99;91.44
78223;BME280;67497;53.058;21.618;2023-12-20T07:48:25;99274.34;;;5.23;91.77
78223;BME280;67497;53.058;21.618;2023-12-20T07:50:26;99222.66;;;5.06;91.33
78223;BME280;67497;53.058;21.618;2023-12-20T07:52:27;99265.75;;;5.37;90.71
78223;BME280;67497;53.058;21.618;2023-12-20T07:54:27;99243.78;;;5.21;90.67
78223;BME280;67497;53.058;21.618;2023-12-20T07:56:28;99225.66;;;5.12;90.65
78223;BME280;67497;53.058;21.618;2023-12-20T07:58:28;99256.06;;;5.25;90.44
78223;BME280;67497;53.058;21.618;2023-12-20T08:00:30;99223.78;;;5.03;90.96
78223;BME280;67497;53.058;21.618;2023-12-20T08:02:30;99217.94;;;4.98;91.22
78223;BME280;67497;53.058;21.618;2023-12-20T08:04:31;99246.22;;;5.15;91.04
78223;BME280;67497;53.058;21.618;2023-12-20T08:06:31;99249.50;;;5.18;90.83
78223;BME280;67497;53.058;21.618;2023-12-20T08:08:31;99277.03;;;5.33;90.58
78223;BME280;67497;53.058;21.618;2023-12-20T08:10:32;99245.81;;;5.10;91.05
78223;BME280;67497;53.058;21.618;2023-12-20T08:12:32;99228.94;;;5.06;91.15
78223;BME280;67497;53.058;21.618;2023-12-20T08:14:33;99260.03;;;5.31;90.66
78223;BME280;67497;53.058;21.618;2023-12-20T08:16:34;99281.44;;;5.43;90.86
78223;BME280;67497;53.058;21.618;2023-12-20T08:18:34;99284.16;;;5.43;90.69
78223;BME280;67497;53.058;21.618;2023-12-20T08:20:35;99282.59;;;5.51;90.41
78223;BME280;67497;53.058;21.618;2023-12-20T08:22:35;99240.06;;;5.32;90.70
78223;BME280;67497;53.058;21.618;2023-12-20T08:24:35;99236.88;;;5.36;90.13
78223;BME280;67497;53.058;21.618;2023-12-20T08:26:36;99227.75;;;5.28;90.18
78223;BME280;67497;53.058;21.618;2023-12-20T08:28:36;99199.22;;;5.14;90.16
78223;BME280;67497;53.058;21.618;2023-12-20T08:30:37;99268.31;;;5.49;90.61
78223;BME280;67497;53.058;21.618;2023-12-20T08:32:37;99226.75;;;5.29;90.46
78223;BME280;67497;53.058;21.618;2023-12-20T08:34:37;99217.47;;;5.31;90.64
78223;BME280;67497;53.058;21.618;2023-12-20T08:36:38;99212.63;;;5.25;90.66
78223;BME280;67497;53.058;21.618;2023-12-20T08:38:38;99206.63;;;5.22;90.18
78223;BME280;67497;53.058;21.618;2023-12-20T08:40:39;99214.75;;;5.31;90.35
78223;BME280;67497;53.058;21.618;2023-12-20T08:42:39;99214.59;;;5.33;90.12
78223;BME280;67497;53.058;21.618;2023-12-20T08:44:40;99217.19;;;5.34;89.33
78223;BME280;67497;53.058;21.618;2023-12-20T08:46:40;99263.59;;;5.51;90.30
78223;BME280;67497;53.058;21.618;2023-12-20T08:48:40;99199.22;;;5.14;89.72
78223;BME280;67497;53.058;21.618;2023-12-20T08:50:41;99228.94;;;5.16;90.58
78223;BME280;67497;53.058;21.618;2023-12-20T08:52:41;99225.78;;;5.20;90.85
78223;BME280;67497;53.058;21.618;2023-12-20T08:54:42;99195.25;;;4.99;91.11
78223;BME280;67497;53.058;21.618;2023-12-20T08:56:42;99226.34;;;5.14;90.56
78223;BME280;67497;53.058;21.618;2023-12-20T08:58:45;99202.38;;;5.00;90.91
78223;BME280;67497;53.058;21.618;2023-12-20T09:00:46;99203.69;;;4.96;91.28
78223;BME280;67497;53.058;21.618;2023-12-20T09:02:47;99219.22;;;5.13;91.28
78223;BME280;67497;53.058;21.618;2023-12-20T09:04:47;99225.06;;;5.18;90.55
78223;BME280;67497;53.058;21.618;2023-12-20T09:06:47;99236.34;;;5.23;90.64
78223;BME280;67497;53.058;21.618;2023-12-20T09:08:48;99216.81;;;5.10;90.89
78223;BME280;67497;53.058;21.618;2023-12-20T09:10:48;99180.41;;;4.94;90.69
78223;BME280;67497;53.058;21.618;2023-12-20T09:12:50;99213.81;;;5.13;90.99
78223;BME280;67497;53.058;21.618;2023-12-20T09:15:04;99250.34;;;5.28;90.71
78223;BME280;67497;53.058;21.618;2023-12-20T09:17:07;99234.91;;;5.29;90.39
78223;BME280;67497;53.058;21.618;2023-12-20T09:19:09;99245.03;;;5.36;90.37
78223;BME280;67497;53.058;21.618;2023-12-20T09:21:09;99220.06;;;5.14;89.64
78223;BME280;67497;53.058;21.618;2023-12-20T09:23:09;99219.22;;;5.13;89.90
78223;BME280;67497;53.058;21.618;2023-12-20T09:25:13;99173.13;;;4.84;90.02
78223;BME280;67497;53.058;21.618;2023-12-20T09:27:15;99180.97;;;4.88;89.49
78223;BME280;67497;53.058;21.618;2023-12-20T09:29:16;99221.94;;;5.13;90.12
78223;BME280;67497;53.058;21.618;2023-12-20T09:31:17;99213.69;;;5.05;90.00
78223;BME280;67497;53.058;21.618;2023-12-20T09:33:17;99232.66;;;5.24;89.45
78223;BME280;67497;53.058;21.618;2023-12-20T09:35:18;99238.91;;;5.25;90.30
78223;BME280;67497;53.058;21.618;2023-12-20T09:37:18;99209.94;;;5.06;90.17
78223;BME280;67497;53.058;21.618;2023-12-20T09:39:19;99238.34;;;5.21;89.50
78223;BME280;67497;53.058;21.618;2023-12-20T09:41:24;99226.75;;;5.19;89.19
78223;BME280;67497;53.058;21.618;2023-12-20T09:43:25;99218.53;;;5.02;89.52
78223;BME280;67497;53.058;21.618;2023-12-20T09:45:26;99225.81;;;5.01;89.62
78223;BME280;67497;53.058;21.618;2023-12-20T09:47:26;99207.53;;;4.94;90.22
78223;BME280;67497;53.058;21.618;2023-12-20T09:49:27;99222.38;;;4.99;89.90
78223;BME280;67497;53.058;21.618;2023-12-20T09:51:28;99213.53;;;4.97;89.47
78223;BME280;67497;53.058;21.618;2023-12-20T09:53:30;99209.94;;;5.06;90.17
78223;BME280;67497;53.058;21.618;2023-12-20T09:55:33;99203.53;;;5.07;89.85
78223;BME280;67497;53.058;21.618;2023-12-20T09:57:33;99169.56;;;4.84;89.78
78223;BME280;67497;53.058;21.618;2023-12-20T09:59:34;99136.44;;;4.71;89.71
78223;BME280;67497;53.058;21.618;2023-12-20T10:01:35;99141.03;;;4.70;90.11
78223;BME280;67497;53.058;21.618;2023-12-20T10:03:39;99149.84;;;4.82;89.86
78223;BME280;67497;53.058;21.618;2023-12-20T10:05:41;99199.94;;;5.16;89.47
78223;BME280;67497;53.058;21.618;2023-12-20T10:07:43;99135.59;;;4.80;89.75
78223;BME280;67497;53.058;21.618;2023-12-20T10:09:44;99149.84;;;4.92;89.37
78223;BME280;67497;53.058;21.618;2023-12-20T10:11:44;99172.50;;;5.10;89.83
78223;BME280;67497;53.058;21.618;2023-12-20T10:13:47;99155.25;;;5.01;89.55
78223;BME280;67497;53.058;21.618;2023-12-20T10:15:49;99153.84;;;4.97;89.78
78223;BME280;67497;53.058;21.618;2023-12-20T10:17:50;99205.75;;;5.31;90.00
78223;BME280;67497;53.058;21.618;2023-12-20T10:19:50;99146.81;;;5.04;89.92
78223;BME280;67497;53.058;21.618;2023-12-20T10:21:51;99192.03;;;5.32;90.15
78223;BME280;67497;53.058;21.618;2023-12-20T10:23:54;99182.28;;;5.30;89.22
78223;BME280;67497;53.058;21.618;2023-12-20T10:25:58;99189.44;;;5.40;89.63
78223;BME280;67497;53.058;21.618;2023-12-20T10:28:32;99181.69;;;5.46;89.40
78223;BME280;67497;53.058;21.618;2023-12-20T10:30:34;99188.50;;;5.59;89.46
78223;BME280;67497;53.058;21.618;2023-12-20T10:32:34;99187.63;;;5.59;89.71
78223;BME280;67497;53.058;21.618;2023-12-20T10:34:35;99184.16;;;5.66;89.13
78223;BME280;67497;53.058;21.618;2023-12-20T10:36:35;99174.16;;;5.67;88.83
78223;BME280;67497;53.058;21.618;2023-12-20T10:38:37;99174.97;;;5.77;88.97
78223;BME280;67497;53.058;21.618;2023-12-20T10:40:41;99173.50;;;5.82;88.65